sensor_id;sensor_type;location;lat;lon;timestamp;temperature;humidity
2202;DHT22;1107;48.654;9.250;2023-10-31T00:00:54;10.90;99.90
2202;DHT22;1107;48.654;9.250;2023-10-31T00:03:21;10.90;99.90
2202;DHT22;1107;48.654;9.250;2023-10-31T00:05:49;10.90;99.90
2202;DHT22;1107;48.654;9.250;2023-10-31T00:08:16;10.90;99.90
2202;DHT22;1107;48.654;9.250;2023-10-31T00:10:43;10.90;99.90
2202;DHT22;1107;48.654;9.250;2023-10-31T00:13:11;10.90;99.90
2202;DHT22;1107;48.654;9.250;2023-10-31T00:15:38;11.00;99.90
2202;DHT22;1107;48.654;9.250;2023-10-31T00:18:05;11.00;99.90
2202;DHT22;1107;48.654;9.250;2023-10-31T00:20:32;10.90;99.90
2202;DHT22;1107;48.654;9.250;2023-10-31T00:23:01;10.90;99.90
2202;DHT22;1107;48.654;9.250;2023-10-31T00:25:28;10.90;99.90
2202;DHT22;1107;48.654;9.250;2023-10-31T00:27:55;10.90;99.90
2202;DHT22;1107;48.654;9.250;2023-10-31T00:30:22;10.90;99.90
2202;DHT22;1107;48.654;9.250;2023-10-31T00:32:49;10.90;99.90
2202;DHT22;1107;48.654;9.250;2023-10-31T00:35:16;10.90;99.90
2202;DHT22;1107;48.654;9.250;2023-10-31T00:37:43;11.00;99.90
2202;DHT22;1107;48.654;9.250;2023-10-31T00:40:12;11.00;99.90
2202;DHT22;1107;48.654;9.250;2023-10-31T00:42:39;10.90;99.90
2202;DHT22;1107;48.654;9.250;2023-10-31T00:45:08;10.90;99.90
2202;DHT22;1107;48.654;9.250;2023-10-31T00:47:35;10.90;99.90
2202;DHT22;1107;48.654;9.250;2023-10-31T00:50:02;10.90;99.90
2202;DHT22;1107;48.654;9.250;2023-10-31T00:52:29;10.90;99.90
2202;DHT22;1107;48.654;9.250;2023-10-31T00:54:56;10.90;99.90
2202;DHT22;1107;48.654;9.250;2023-10-31T00:57:25;10.90;99.90
2202;DHT22;1107;48.654;9.250;2023-10-31T00:59:52;10.90;99.90
2202;DHT22;1107;48.654;9.250;2023-10-31T01:02:19;10.90;99.90
2202;DHT22;1107;48.654;9.250;2023-10-31T01:04:45;10.90;99.90
2202;DHT22;1107;48.654;9.250;2023-10-31T01:07:12;10.90;99.90
2202;DHT22;1107;48.654;9.250;2023-10-31T01:09:42;10.90;99.90
2202;DHT22;1107;48.654;9.250;2023-10-31T01:12:10;10.90;99.90
2202;DHT22;1107;48.654;9.250;2023-10-31T01:14:38;10.80;99.90
2202;DHT22;1107;48.654;9.250;2023-10-31T01:17:05;10.80;99.90
2202;DHT22;1107;48.654;9.250;2023-10-31T01:19:32;10.80;99.90
2202;DHT22;1107;48.654;9.250;2023-10-31T01:21:59;10.90;99.90
2202;DHT22;1107;48.654;9.250;2023-10-31T01:24:26;10.80;99.90
2202;DHT22;1107;48.654;9.250;2023-10-31T01:26:53;10.80;99.90
2202;DHT22;1107;48.654;9.250;2023-10-31T01:29:20;10.80;99.90
2202;DHT22;1107;48.654;9.250;2023-10-31T01:31:48;10.70;99.90
2202;DHT22;1107;48.654;9.250;2023-10-31T01:34:15;10.80;99.90
2202;DHT22;1107;48.654;9.250;2023-10-31T01:36:42;10.70;99.90
2202;DHT22;1107;48.654;9.250;2023-10-31T01:39:09;10.70;99.90
2202;DHT22;1107;48.654;9.250;2023-10-31T01:41:36;10.70;99.90
2202;DHT22;1107;48.654;9.250;2023-10-31T01:44:03;10.70;99.90
2202;DHT22;1107;48.654;9.250;2023-10-31T01:46:30;10.60;99.90
2202;DHT22;1107;48.654;9.250;2023-10-31T01:48:58;10.60;99.90
2202;DHT22;1107;48.654;9.250;2023-10-31T01:51:26;10.60;99.90
2202;DHT22;1107;48.654;9.250;2023-10-31T01:53:53;10.60;99.90
2202;DHT22;1107;48.654;9.250;2023-10-31T01:56:21;10.50;99.90
2202;DHT22;1107;48.654;9.250;2023-10-31T01:58:49;10.50;99.90
2202;DHT22;1107;48.654;9.250;2023-10-31T02:01:16;10.50;99.90
2202;DHT22;1107;48.654;9.250;2023-10-31T02:03:43;10.40;99.90
2202;DHT22;1107;48.654;9.250;2023-10-31T02:06:11;10.40;99.90
2202;DHT22;1107;48.654;9.250;2023-10-31T02:08:39;10.50;99.90
2202;DHT22;1107;48.654;9.250;2023-10-31T02:11:06;10.50;99.90
2202;DHT22;1107;48.654;9.250;2023-10-31T02:13:36;10.40;99.90
2202;DHT22;1107;48.654;9.250;2023-10-31T02:16:03;10.40;99.90
2202;DHT22;1107;48.654;9.250;2023-10-31T02:18:30;10.30;99.90
2202;DHT22;1107;48.654;9.250;2023-10-31T02:20:57;10.30;99.90
2202;DHT22;1107;48.654;9.250;2023-10-31T02:23:26;10.30;99.90
2202;DHT22;1107;48.654;9.250;2023-10-31T02:25:53;10.30;99.90
2202;DHT22;1107;48.654;9.250;2023-10-31T02:28:19;10.30;99.90
2202;DHT22;1107;48.654;9.250;2023-10-31T02:30:46;10.30;99.90
2202;DHT22;1107;48.654;9.250;2023-10-31T02:33:13;10.30;99.90
2202;DHT22;1107;48.654;9.250;2023-10-31T02:35:40;10.30;99.90
2202;DHT22;1107;48.654;9.250;2023-10-31T02:38:07;10.30;99.90
2202;DHT22;1107;48.654;9.250;2023-10-31T02:40:36;10.20;99.90
2202;DHT22;1107;48.654;9.250;2023-10-31T02:43:03;10.20;99.90
2202;DHT22;1107;48.654;9.250;2023-10-31T02:45:29;10.20;99.90
2202;DHT22;1107;48.654;9.250;2023-10-31T02:47:56;10.20;99.90
2202;DHT22;1107;48.654;9.250;2023-10-31T02:50:24;10.20;99.90
2202;DHT22;1107;48.654;9.250;2023-10-31T02:52:50;10.30;99.90
2202;DHT22;1107;48.654;9.250;2023-10-31T02:55:17;10.30;99.90
2202;DHT22;1107;48.654;9.250;2023-10-31T02:57:46;10.20;99.90
2202;DHT22;1107;48.654;9.250;2023-10-31T03:00:14;10.30;99.90
2202;DHT22;1107;48.654;9.250;2023-10-31T03:02:41;10.30;99.90
2202;DHT22;1107;48.654;9.250;2023-10-31T03:05:08;10.30;99.90
2202;DHT22;1107;48.654;9.250;2023-10-31T03:07:35;10.30;99.90
2202;DHT22;1107;48.654;9.250;2023-10-31T03:10:02;10.20;99.90
2202;DHT22;1107;48.654;9.250;2023-10-31T03:12:29;10.20;99.90
2202;DHT22;1107;48.654;9.250;2023-10-31T03:14:58;10.10;99.90
2202;DHT22;1107;48.654;9.250;2023-10-31T03:17:24;10.10;99.90
2202;DHT22;1107;48.654;9.250;2023-10-31T03:19:53;10.10;99.90
2202;DHT22;1107;48.654;9.250;2023-10-31T03:22:20;10.10;99.90
2202;DHT22;1107;48.654;9.250;2023-10-31T03:24:47;10.10;99.90
2202;DHT22;1107;48.654;9.250;2023-10-31T03:27:14;10.10;99.90
2202;DHT22;1107;48.654;9.250;2023-10-31T03:29:41;10.00;99.90
2202;DHT22;1107;48.654;9.250;2023-10-31T03:32:09;10.00;99.90
2202;DHT22;1107;48.654;9.250;2023-10-31T03:34:36;10.00;99.90
2202;DHT22;1107;48.654;9.250;2023-10-31T03:37:04;10.00;99.90
2202;DHT22;1107;48.654;9.250;2023-10-31T03:39:31;10.00;99.90
2202;DHT22;1107;48.654;9.250;2023-10-31T03:41:58;9.90;99.90
2202;DHT22;1107;48.654;9.250;2023-10-31T03:44:25;9.90;99.90
2202;DHT22;1107;48.654;9.250;2023-10-31T03:46:52;9.80;99.90
2202;DHT22;1107;48.654;9.250;2023-10-31T03:49:20;9.80;99.90
2202;DHT22;1107;48.654;9.250;2023-10-31T03:51:47;9.80;99.90
2202;DHT22;1107;48.654;9.250;2023-10-31T03:54:14;9.80;99.90
2202;DHT22;1107;48.654;9.250;2023-10-31T03:56:41;9.70;99.90
2202;DHT22;1107;48.654;9.250;2023-10-31T03:59:09;9.70;99.90
2202;DHT22;1107;48.654;9.250;2023-10-31T04:01:36;9.70;99.90
2202;DHT22;1107;48.654;9.250;2023-10-31T04:04:03;9.70;99.90
2202;DHT22;1107;48.654;9.250;2023-10-31T04:06:31;9.70;99.90
2202;DHT22;1107;48.654;9.250;2023-10-31T04:08:58;9.70;99.90
2202;DHT22;1107;48.654;9.250;2023-10-31T04:11:25;9.70;99.90
2202;DHT22;1107;48.654;9.250;2023-10-31T04:13:52;9.70;99.90
2202;DHT22;1107;48.654;9.250;2023-10-31T04:16:19;9.70;99.90
2202;DHT22;1107;48.654;9.250;2023-10-31T04:18:46;9.70;99.90
2202;DHT22;1107;48.654;9.250;2023-10-31T04:21:13;9.70;99.90
2202;DHT22;1107;48.654;9.250;2023-10-31T04:23:41;9.70;99.90
2202;DHT22;1107;48.654;9.250;2023-10-31T04:26:08;9.70;99.90
2202;DHT22;1107;48.654;9.250;2023-10-31T04:28:35;9.70;99.90
2202;DHT22;1107;48.654;9.250;2023-10-31T04:31:02;9.70;99.90
2202;DHT22;1107;48.654;9.250;2023-10-31T04:33:29;9.70;99.90
2202;DHT22;1107;48.654;9.250;2023-10-31T04:35:56;9.70;99.90
2202;DHT22;1107;48.654;9.250;2023-10-31T04:38:23;9.70;99.90
2202;DHT22;1107;48.654;9.250;2023-10-31T04:40:51;9.60;99.90
2202;DHT22;1107;48.654;9.250;2023-10-31T04:43:18;9.60;99.90
2202;DHT22;1107;48.654;9.250;2023-10-31T04:45:45;9.60;99.90
2202;DHT22;1107;48.654;9.250;2023-10-31T04:48:12;9.60;99.90
2202;DHT22;1107;48.654;9.250;2023-10-31T04:50:38;9.60;99.90
2202;DHT22;1107;48.654;9.250;2023-10-31T04:53:05;9.60;99.90
2202;DHT22;1107;48.654;9.250;2023-10-31T04:55:32;9.60;99.90
2202;DHT22;1107;48.654;9.250;2023-10-31T04:58:00;9.60;99.90
2202;DHT22;1107;48.654;9.250;2023-10-31T05:00:27;9.60;99.90
2202;DHT22;1107;48.654;9.250;2023-10-31T05:02:54;9.60;99.90
2202;DHT22;1107;48.654;9.250;2023-10-31T05:05:22;9.50;99.90
2202;DHT22;1107;48.654;9.250;2023-10-31T05:07:49;9.50;99.90
2202;DHT22;1107;48.654;9.250;2023-10-31T05:10:16;9.50;99.90
2202;DHT22;1107;48.654;9.250;2023-10-31T05:12:42;9.50;99.90
2202;DHT22;1107;48.654;9.250;2023-10-31T05:15:11;9.40;99.90
2202;DHT22;1107;48.654;9.250;2023-10-31T05:17:38;9.40;99.90
2202;DHT22;1107;48.654;9.250;2023-10-31T05:20:06;9.30;99.90
2202;DHT22;1107;48.654;9.250;2023-10-31T05:22:35;9.30;99.90
2202;DHT22;1107;48.654;9.250;2023-10-31T05:25:02;9.30;99.90
2202;DHT22;1107;48.654;9.250;2023-10-31T05:27:30;9.30;99.90
2202;DHT22;1107;48.654;9.250;2023-10-31T05:29:57;9.30;99.90
2202;DHT22;1107;48.654;9.250;2023-10-31T05:32:26;9.30;99.90
2202;DHT22;1107;48.654;9.250;2023-10-31T05:34:52;9.30;99.90
2202;DHT22;1107;48.654;9.250;2023-10-31T05:37:19;9.30;99.90
2202;DHT22;1107;48.654;9.250;2023-10-31T05:39:46;9.30;99.90
2202;DHT22;1107;48.654;9.250;2023-10-31T05:42:13;9.30;99.90
2202;DHT22;1107;48.654;9.250;2023-10-31T05:44:40;9.30;99.90
2202;DHT22;1107;48.654;9.250;2023-10-31T05:47:07;9.30;99.90
2202;DHT22;1107;48.654;9.250;2023-10-31T05:49:35;9.30;99.90
2202;DHT22;1107;48.654;9.250;2023-10-31T05:52:03;9.30;99.90
2202;DHT22;1107;48.654;9.250;2023-10-31T05:54:30;9.30;99.90
2202;DHT22;1107;48.654;9.250;2023-10-31T05:56:57;9.30;99.90
2202;DHT22;1107;48.654;9.250;2023-10-31T05:59:24;9.30;99.90
2202;DHT22;1107;48.654;9.250;2023-10-31T06:01:51;9.30;99.90
2202;DHT22;1107;48.654;9.250;2023-10-31T06:04:18;9.30;99.90
2202;DHT22;1107;48.654;9.250;2023-10-31T06:06:46;9.30;99.90
2202;DHT22;1107;48.654;9.250;2023-10-31T06:09:13;9.30;99.90
2202;DHT22;1107;48.654;9.250;2023-10-31T06:11:41;9.30;99.90
2202;DHT22;1107;48.654;9.250;2023-10-31T06:14:09;9.30;99.90
2202;DHT22;1107;48.654;9.250;2023-10-31T06:16:40;9.30;99.90
2202;DHT22;1107;48.654;9.250;2023-10-31T06:19:07;9.20;99.90
2202;DHT22;1107;48.654;9.250;2023-10-31T06:21:34;9.20;99.90
2202;DHT22;1107;48.654;9.250;2023-10-31T06:24:03;9.20;99.90
2202;DHT22;1107;48.654;9.250;2023-10-31T06:26:30;9.20;99.90
2202;DHT22;1107;48.654;9.250;2023-10-31T06:28:57;9.20;99.90
2202;DHT22;1107;48.654;9.250;2023-10-31T06:31:24;9.20;99.90
2202;DHT22;1107;48.654;9.250;2023-10-31T06:33:50;9.20;99.90
2202;DHT22;1107;48.654;9.250;2023-10-31T06:36:17;9.20;99.90
2202;DHT22;1107;48.654;9.250;2023-10-31T06:38:44;9.10;99.90
2202;DHT22;1107;48.654;9.250;2023-10-31T06:41:13;9.10;99.90
2202;DHT22;1107;48.654;9.250;2023-10-31T06:43:40;9.10;99.90
2202;DHT22;1107;48.654;9.250;2023-10-31T06:46:07;9.10;99.90
2202;DHT22;1107;48.654;9.250;2023-10-31T06:48:34;9.10;99.90
2202;DHT22;1107;48.654;9.250;2023-10-31T06:51:01;9.10;99.90
2202;DHT22;1107;48.654;9.250;2023-10-31T06:53:28;9.10;99.90
2202;DHT22;1107;48.654;9.250;2023-10-31T06:55:55;9.20;99.90
2202;DHT22;1107;48.654;9.250;2023-10-31T06:58:23;9.10;99.90
2202;DHT22;1107;48.654;9.250;2023-10-31T07:00:50;9.20;99.90
2202;DHT22;1107;48.654;9.250;2023-10-31T07:03:17;9.20;99.90
2202;DHT22;1107;48.654;9.250;2023-10-31T07:05:44;9.20;99.90
2202;DHT22;1107;48.654;9.250;2023-10-31T07:08:11;9.20;99.90
2202;DHT22;1107;48.654;9.250;2023-10-31T07:10:38;9.20;99.90
2202;DHT22;1107;48.654;9.250;2023-10-31T07:13:05;9.20;99.90
2202;DHT22;1107;48.654;9.250;2023-10-31T07:15:33;9.30;99.90
2202;DHT22;1107;48.654;9.250;2023-10-31T07:18:04;9.30;99.90
2202;DHT22;1107;48.654;9.250;2023-10-31T07:20:33;9.30;99.90
2202;DHT22;1107;48.654;9.250;2023-10-31T07:22:59;9.40;99.90
2202;DHT22;1107;48.654;9.250;2023-10-31T07:25:27;9.40;99.90
2202;DHT22;1107;48.654;9.250;2023-10-31T07:27:53;9.40;99.90
2202;DHT22;1107;48.654;9.250;2023-10-31T07:30:20;9.50;99.90
2202;DHT22;1107;48.654;9.250;2023-10-31T07:32:49;9.50;99.90
2202;DHT22;1107;48.654;9.250;2023-10-31T07:35:16;9.50;99.90
2202;DHT22;1107;48.654;9.250;2023-10-31T07:37:45;9.60;99.90
2202;DHT22;1107;48.654;9.250;2023-10-31T07:40:12;9.60;99.90
2202;DHT22;1107;48.654;9.250;2023-10-31T07:42:39;9.60;99.90
2202;DHT22;1107;48.654;9.250;2023-10-31T07:45:07;9.60;99.90
2202;DHT22;1107;48.654;9.250;2023-10-31T07:47:34;9.60;99.90
2202;DHT22;1107;48.654;9.250;2023-10-31T07:50:03;9.70;99.90
2202;DHT22;1107;48.654;9.250;2023-10-31T07:52:30;9.70;99.90
2202;DHT22;1107;48.654;9.250;2023-10-31T07:54:57;9.80;99.90
2202;DHT22;1107;48.654;9.250;2023-10-31T07:57:23;9.80;99.90
2202;DHT22;1107;48.654;9.250;2023-10-31T07:59:50;9.90;99.90
2202;DHT22;1107;48.654;9.250;2023-10-31T08:02:17;9.90;99.90
2202;DHT22;1107;48.654;9.250;2023-10-31T08:04:44;10.00;99.90
2202;DHT22;1107;48.654;9.250;2023-10-31T08:07:12;10.00;99.90
2202;DHT22;1107;48.654;9.250;2023-10-31T08:09:39;10.00;99.90
2202;DHT22;1107;48.654;9.250;2023-10-31T08:12:07;10.20;99.90
2202;DHT22;1107;48.654;9.250;2023-10-31T08:14:34;10.30;99.90
2202;DHT22;1107;48.654;9.250;2023-10-31T08:17:00;10.30;99.90
2202;DHT22;1107;48.654;9.250;2023-10-31T08:19:27;10.40;99.90
2202;DHT22;1107;48.654;9.250;2023-10-31T08:21:54;10.50;99.90
2202;DHT22;1107;48.654;9.250;2023-10-31T08:24:23;10.50;99.90
2202;DHT22;1107;48.654;9.250;2023-10-31T08:26:49;10.60;99.90
2202;DHT22;1107;48.654;9.250;2023-10-31T08:29:16;10.60;99.90
2202;DHT22;1107;48.654;9.250;2023-10-31T08:31:43;10.70;99.90
2202;DHT22;1107;48.654;9.250;2023-10-31T08:34:10;10.80;99.90
2202;DHT22;1107;48.654;9.250;2023-10-31T08:36:37;10.70;99.90
2202;DHT22;1107;48.654;9.250;2023-10-31T08:39:04;10.90;99.90
2202;DHT22;1107;48.654;9.250;2023-10-31T08:41:33;11.00;99.90
2202;DHT22;1107;48.654;9.250;2023-10-31T08:44:00;11.10;99.90
2202;DHT22;1107;48.654;9.250;2023-10-31T08:46:29;11.20;99.90
2202;DHT22;1107;48.654;9.250;2023-10-31T08:48:56;11.30;99.90
2202;DHT22;1107;48.654;9.250;2023-10-31T08:51:23;11.20;99.90
2202;DHT22;1107;48.654;9.250;2023-10-31T08:53:50;11.40;99.90
2202;DHT22;1107;48.654;9.250;2023-10-31T08:56:17;11.50;99.90
2202;DHT22;1107;48.654;9.250;2023-10-31T08:58:46;11.70;99.90
2202;DHT22;1107;48.654;9.250;2023-10-31T09:01:13;11.70;99.90
2202;DHT22;1107;48.654;9.250;2023-10-31T09:03:40;11.70;99.90
2202;DHT22;1107;48.654;9.250;2023-10-31T09:06:07;11.60;99.90
2202;DHT22;1107;48.654;9.250;2023-10-31T09:08:34;11.80;99.90
2202;DHT22;1107;48.654;9.250;2023-10-31T09:11:03;11.80;99.90
2202;DHT22;1107;48.654;9.250;2023-10-31T09:13:30;11.70;99.90
2202;DHT22;1107;48.654;9.250;2023-10-31T09:15:59;11.80;99.90
2202;DHT22;1107;48.654;9.250;2023-10-31T09:18:26;11.90;99.90
2202;DHT22;1107;48.654;9.250;2023-10-31T09:20:53;11.90;99.90
2202;DHT22;1107;48.654;9.250;2023-10-31T09:23:20;11.90;99.90
2202;DHT22;1107;48.654;9.250;2023-10-31T09:25:47;12.10;99.90
2202;DHT22;1107;48.654;9.250;2023-10-31T09:28:14;12.30;99.90
2202;DHT22;1107;48.654;9.250;2023-10-31T09:30:41;12.60;99.90
2202;DHT22;1107;48.654;9.250;2023-10-31T09:33:09;13.10;99.90
2202;DHT22;1107;48.654;9.250;2023-10-31T09:35:36;13.30;99.90
2202;DHT22;1107;48.654;9.250;2023-10-31T09:38:03;13.80;99.90
2202;DHT22;1107;48.654;9.250;2023-10-31T09:40:30;13.90;99.90
2202;DHT22;1107;48.654;9.250;2023-10-31T09:42:57;14.10;99.90
2202;DHT22;1107;48.654;9.250;2023-10-31T09:45:24;14.50;99.90
2202;DHT22;1107;48.654;9.250;2023-10-31T09:47:51;14.60;99.90
2202;DHT22;1107;48.654;9.250;2023-10-31T09:50:21;14.90;99.90
2202;DHT22;1107;48.654;9.250;2023-10-31T09:52:48;15.30;99.90
2202;DHT22;1107;48.654;9.250;2023-10-31T09:55:15;15.30;99.90
2202;DHT22;1107;48.654;9.250;2023-10-31T09:57:42;14.90;99.90
2202;DHT22;1107;48.654;9.250;2023-10-31T10:00:10;15.00;99.90
2202;DHT22;1107;48.654;9.250;2023-10-31T10:02:37;15.30;99.90
2202;DHT22;1107;48.654;9.250;2023-10-31T10:05:04;15.80;99.90
2202;DHT22;1107;48.654;9.250;2023-10-31T10:07:33;16.30;99.90
2202;DHT22;1107;48.654;9.250;2023-10-31T10:10:01;15.50;99.90
2202;DHT22;1107;48.654;9.250;2023-10-31T10:12:28;14.80;99.90
2202;DHT22;1107;48.654;9.250;2023-10-31T10:14:56;14.50;99.90
2202;DHT22;1107;48.654;9.250;2023-10-31T10:17:24;14.00;99.90
2202;DHT22;1107;48.654;9.250;2023-10-31T10:20:05;13.20;99.90
2202;DHT22;1107;48.654;9.250;2023-10-31T10:22:36;12.90;99.90
2202;DHT22;1107;48.654;9.250;2023-10-31T10:25:05;12.70;99.90
2202;DHT22;1107;48.654;9.250;2023-10-31T10:27:32;12.60;99.90
2202;DHT22;1107;48.654;9.250;2023-10-31T10:29:59;12.50;99.90
2202;DHT22;1107;48.654;9.250;2023-10-31T10:32:26;12.60;99.90
2202;DHT22;1107;48.654;9.250;2023-10-31T10:34:54;12.40;99.90
2202;DHT22;1107;48.654;9.250;2023-10-31T10:37:21;12.40;99.90
2202;DHT22;1107;48.654;9.250;2023-10-31T10:39:52;12.40;99.90
2202;DHT22;1107;48.654;9.250;2023-10-31T10:42:27;12.30;99.90
2202;DHT22;1107;48.654;9.250;2023-10-31T10:45:00;12.40;99.90
2202;DHT22;1107;48.654;9.250;2023-10-31T10:47:29;12.20;99.90
2202;DHT22;1107;48.654;9.250;2023-10-31T10:49:59;12.20;99.90
2202;DHT22;1107;48.654;9.250;2023-10-31T10:52:30;12.10;99.90
2202;DHT22;1107;48.654;9.250;2023-10-31T10:55:12;12.00;99.90
2202;DHT22;1107;48.654;9.250;2023-10-31T10:57:47;11.90;99.90
2202;DHT22;1107;48.654;9.250;2023-10-31T11:00:15;11.90;99.90
2202;DHT22;1107;48.654;9.250;2023-10-31T11:02:43;11.90;99.90
2202;DHT22;1107;48.654;9.250;2023-10-31T11:05:11;11.90;99.90
2202;DHT22;1107;48.654;9.250;2023-10-31T11:07:40;11.90;99.90
2202;DHT22;1107;48.654;9.250;2023-10-31T11:10:09;12.10;99.90
2202;DHT22;1107;48.654;9.250;2023-10-31T11:12:37;12.30;99.90
2202;DHT22;1107;48.654;9.250;2023-10-31T11:15:06;12.50;99.90
2202;DHT22;1107;48.654;9.250;2023-10-31T11:17:37;12.50;99.90
2202;DHT22;1107;48.654;9.250;2023-10-31T11:20:05;12.50;99.90
2202;DHT22;1107;48.654;9.250;2023-10-31T11:22:37;12.50;99.90
2202;DHT22;1107;48.654;9.250;2023-10-31T11:25:07;12.30;99.90
2202;DHT22;1107;48.654;9.250;2023-10-31T11:27:35;12.40;99.90
2202;DHT22;1107;48.654;9.250;2023-10-31T11:30:05;12.80;99.90
2202;DHT22;1107;48.654;9.250;2023-10-31T11:32:33;13.30;99.90
2202;DHT22;1107;48.654;9.250;2023-10-31T11:35:00;13.50;99.90
2202;DHT22;1107;48.654;9.250;2023-10-31T11:37:32;13.70;99.90
2202;DHT22;1107;48.654;9.250;2023-10-31T11:40:21;13.80;99.90
2202;DHT22;1107;48.654;9.250;2023-10-31T11:42:50;14.50;99.90
2202;DHT22;1107;48.654;9.250;2023-10-31T11:45:26;15.40;99.90
2202;DHT22;1107;48.654;9.250;2023-10-31T11:47:54;15.70;99.90
2202;DHT22;1107;48.654;9.250;2023-10-31T11:50:21;17.10;99.90
2202;DHT22;1107;48.654;9.250;2023-10-31T11:52:59;16.90;99.90
2202;DHT22;1107;48.654;9.250;2023-10-31T11:55:27;16.30;99.90
2202;DHT22;1107;48.654;9.250;2023-10-31T11:57:55;15.10;99.90
2202;DHT22;1107;48.654;9.250;2023-10-31T12:00:23;15.00;99.90
2202;DHT22;1107;48.654;9.250;2023-10-31T12:02:59;14.60;99.90
2202;DHT22;1107;48.654;9.250;2023-10-31T12:05:26;14.80;99.90
2202;DHT22;1107;48.654;9.250;2023-10-31T12:07:54;14.80;99.90
2202;DHT22;1107;48.654;9.250;2023-10-31T12:10:25;14.60;99.90
2202;DHT22;1107;48.654;9.250;2023-10-31T12:12:57;14.50;99.90
2202;DHT22;1107;48.654;9.250;2023-10-31T12:15:25;14.40;99.90
2202;DHT22;1107;48.654;9.250;2023-10-31T12:17:52;14.40;99.90
2202;DHT22;1107;48.654;9.250;2023-10-31T12:20:19;14.10;99.90
2202;DHT22;1107;48.654;9.250;2023-10-31T12:22:46;14.00;99.90
2202;DHT22;1107;48.654;9.250;2023-10-31T12:25:13;13.90;99.90
2202;DHT22;1107;48.654;9.250;2023-10-31T12:27:43;13.90;99.90
2202;DHT22;1107;48.654;9.250;2023-10-31T12:30:15;13.90;99.90
2202;DHT22;1107;48.654;9.250;2023-10-31T12:32:44;13.90;99.90
2202;DHT22;1107;48.654;9.250;2023-10-31T12:35:13;14.20;99.90
2202;DHT22;1107;48.654;9.250;2023-10-31T12:37:44;14.30;99.90
2202;DHT22;1107;48.654;9.250;2023-10-31T12:40:12;14.00;99.90
2202;DHT22;1107;48.654;9.250;2023-10-31T12:42:42;13.80;99.90
2202;DHT22;1107;48.654;9.250;2023-10-31T12:45:09;13.50;99.90
2202;DHT22;1107;48.654;9.250;2023-10-31T12:47:38;13.40;99.90
2202;DHT22;1107;48.654;9.250;2023-10-31T12:50:06;13.40;99.90
2202;DHT22;1107;48.654;9.250;2023-10-31T12:52:50;13.30;99.90
2202;DHT22;1107;48.654;9.250;2023-10-31T12:55:19;13.40;99.90
2202;DHT22;1107;48.654;9.250;2023-10-31T12:57:46;13.50;99.90
2202;DHT22;1107;48.654;9.250;2023-10-31T13:00:14;13.60;99.90
2202;DHT22;1107;48.654;9.250;2023-10-31T13:02:45;13.60;99.90
2202;DHT22;1107;48.654;9.250;2023-10-31T13:05:14;13.50;99.90
2202;DHT22;1107;48.654;9.250;2023-10-31T13:07:48;13.30;99.90
2202;DHT22;1107;48.654;9.250;2023-10-31T13:10:16;13.30;99.90
2202;DHT22;1107;48.654;9.250;2023-10-31T13:12:44;13.10;99.90
2202;DHT22;1107;48.654;9.250;2023-10-31T13:15:12;13.20;99.90
2202;DHT22;1107;48.654;9.250;2023-10-31T13:17:39;13.20;99.90
2202;DHT22;1107;48.654;9.250;2023-10-31T13:20:10;13.20;99.90
2202;DHT22;1107;48.654;9.250;2023-10-31T13:22:37;13.20;99.90
2202;DHT22;1107;48.654;9.250;2023-10-31T13:25:06;13.40;99.90
2202;DHT22;1107;48.654;9.250;2023-10-31T13:27:34;13.40;99.90
2202;DHT22;1107;48.654;9.250;2023-10-31T13:30:02;13.30;99.90
2202;DHT22;1107;48.654;9.250;2023-10-31T13:32:29;13.10;99.90
2202;DHT22;1107;48.654;9.250;2023-10-31T13:34:56;13.10;99.90
2202;DHT22;1107;48.654;9.250;2023-10-31T13:37:24;13.10;99.90
2202;DHT22;1107;48.654;9.250;2023-10-31T13:39:51;13.10;99.90
2202;DHT22;1107;48.654;9.250;2023-10-31T13:42:18;13.10;99.90
2202;DHT22;1107;48.654;9.250;2023-10-31T13:44:45;13.10;99.90
2202;DHT22;1107;48.654;9.250;2023-10-31T13:47:13;13.10;99.90
2202;DHT22;1107;48.654;9.250;2023-10-31T13:49:41;13.10;99.90
2202;DHT22;1107;48.654;9.250;2023-10-31T13:52:08;13.20;99.90
2202;DHT22;1107;48.654;9.250;2023-10-31T13:54:36;13.70;99.90
2202;DHT22;1107;48.654;9.250;2023-10-31T13:57:03;13.90;99.90
2202;DHT22;1107;48.654;9.250;2023-10-31T13:59:30;14.20;99.90
2202;DHT22;1107;48.654;9.250;2023-10-31T14:01:58;14.60;99.90
2202;DHT22;1107;48.654;9.250;2023-10-31T14:04:25;14.70;99.90
2202;DHT22;1107;48.654;9.250;2023-10-31T14:06:54;14.70;99.90
2202;DHT22;1107;48.654;9.250;2023-10-31T14:09:21;14.60;99.90
2202;DHT22;1107;48.654;9.250;2023-10-31T14:11:49;14.40;99.90
2202;DHT22;1107;48.654;9.250;2023-10-31T14:14:16;14.10;99.90
2202;DHT22;1107;48.654;9.250;2023-10-31T14:16:44;13.90;99.90
2202;DHT22;1107;48.654;9.250;2023-10-31T14:19:12;13.70;99.90
2202;DHT22;1107;48.654;9.250;2023-10-31T14:21:39;13.60;99.90
2202;DHT22;1107;48.654;9.250;2023-10-31T14:24:07;13.30;99.90
2202;DHT22;1107;48.654;9.250;2023-10-31T14:26:35;13.30;99.90
2202;DHT22;1107;48.654;9.250;2023-10-31T14:29:04;13.20;99.90
2202;DHT22;1107;48.654;9.250;2023-10-31T14:31:31;13.10;99.90
2202;DHT22;1107;48.654;9.250;2023-10-31T14:33:58;13.00;99.90
2202;DHT22;1107;48.654;9.250;2023-10-31T14:36:25;13.00;99.90
2202;DHT22;1107;48.654;9.250;2023-10-31T14:38:51;13.00;99.90
2202;DHT22;1107;48.654;9.250;2023-10-31T14:41:18;13.00;99.90
2202;DHT22;1107;48.654;9.250;2023-10-31T14:43:46;13.00;99.90
2202;DHT22;1107;48.654;9.250;2023-10-31T14:46:14;13.00;99.90
2202;DHT22;1107;48.654;9.250;2023-10-31T14:48:41;13.00;99.90
2202;DHT22;1107;48.654;9.250;2023-10-31T14:51:08;12.90;99.90
2202;DHT22;1107;48.654;9.250;2023-10-31T14:53:35;12.90;99.90
2202;DHT22;1107;48.654;9.250;2023-10-31T14:56:02;12.80;99.90
2202;DHT22;1107;48.654;9.250;2023-10-31T14:58:31;12.70;99.90
2202;DHT22;1107;48.654;9.250;2023-10-31T15:00:58;12.70;99.90
2202;DHT22;1107;48.654;9.250;2023-10-31T15:03:26;12.60;99.90
2202;DHT22;1107;48.654;9.250;2023-10-31T15:05:53;12.60;99.90
2202;DHT22;1107;48.654;9.250;2023-10-31T15:08:20;12.50;99.90
2202;DHT22;1107;48.654;9.250;2023-10-31T15:10:48;12.40;99.90
2202;DHT22;1107;48.654;9.250;2023-10-31T15:13:14;12.40;99.90
2202;DHT22;1107;48.654;9.250;2023-10-31T15:15:41;12.30;99.90
2202;DHT22;1107;48.654;9.250;2023-10-31T15:18:08;12.30;99.90
2202;DHT22;1107;48.654;9.250;2023-10-31T15:20:37;12.20;99.90
2202;DHT22;1107;48.654;9.250;2023-10-31T15:23:04;12.20;99.90
2202;DHT22;1107;48.654;9.250;2023-10-31T15:25:31;12.10;99.90
2202;DHT22;1107;48.654;9.250;2023-10-31T15:27:58;12.10;99.90
2202;DHT22;1107;48.654;9.250;2023-10-31T15:30:24;12.00;99.90
2202;DHT22;1107;48.654;9.250;2023-10-31T15:32:51;11.90;99.90
2202;DHT22;1107;48.654;9.250;2023-10-31T15:35:18;11.90;99.90
2202;DHT22;1107;48.654;9.250;2023-10-31T15:37:47;11.80;99.90
2202;DHT22;1107;48.654;9.250;2023-10-31T15:40:14;11.80;99.90
2202;DHT22;1107;48.654;9.250;2023-10-31T15:42:41;11.80;99.90
2202;DHT22;1107;48.654;9.250;2023-10-31T15:45:10;11.60;99.90
2202;DHT22;1107;48.654;9.250;2023-10-31T15:47:37;11.40;99.90
2202;DHT22;1107;48.654;9.250;2023-10-31T15:50:06;11.30;99.90
2202;DHT22;1107;48.654;9.250;2023-10-31T15:52:35;11.20;99.90
2202;DHT22;1107;48.654;9.250;2023-10-31T15:55:05;11.20;99.90
2202;DHT22;1107;48.654;9.250;2023-10-31T15:57:32;11.10;99.90
2202;DHT22;1107;48.654;9.250;2023-10-31T15:59:59;11.10;99.90
2202;DHT22;1107;48.654;9.250;2023-10-31T16:02:26;11.00;99.90
2202;DHT22;1107;48.654;9.250;2023-10-31T16:04:53;11.00;99.90
2202;DHT22;1107;48.654;9.250;2023-10-31T16:07:20;11.00;99.90
2202;DHT22;1107;48.654;9.250;2023-10-31T16:09:47;10.90;99.90